sensor_id;sensor_type;location;lat;lon;timestamp;temperature;humidity
33564;DHT22;19894;48.452;11.494;2022-10-31T00:00:57;20.10;55.40
33564;DHT22;19894;48.452;11.494;2022-10-31T00:03:23;20.10;55.40
33564;DHT22;19894;48.452;11.494;2022-10-31T00:05:50;20.10;55.40
33564;DHT22;19894;48.452;11.494;2022-10-31T00:08:16;20.10;55.40
33564;DHT22;19894;48.452;11.494;2022-10-31T00:10:43;20.10;55.50
33564;DHT22;19894;48.452;11.494;2022-10-31T00:13:10;20.10;55.30
33564;DHT22;19894;48.452;11.494;2022-10-31T00:15:37;20.10;55.50
33564;DHT22;19894;48.452;11.494;2022-10-31T00:18:04;20.10;55.60
33564;DHT22;19894;48.452;11.494;2022-10-31T00:20:30;20.10;55.30
33564;DHT22;19894;48.452;11.494;2022-10-31T00:23:00;20.10;55.60
33564;DHT22;19894;48.452;11.494;2022-10-31T00:25:27;20.10;55.60
33564;DHT22;19894;48.452;11.494;2022-10-31T00:27:53;20.10;55.30
33564;DHT22;19894;48.452;11.494;2022-10-31T00:30:18;20.10;55.40
33564;DHT22;19894;48.452;11.494;2022-10-31T00:32:44;20.10;54.90
33564;DHT22;19894;48.452;11.494;2022-10-31T00:35:09;20.10;54.50
33564;DHT22;19894;48.452;11.494;2022-10-31T00:37:35;20.10;54.40
33564;DHT22;19894;48.452;11.494;2022-10-31T00:40:00;20.10;54.20
33564;DHT22;19894;48.452;11.494;2022-10-31T00:42:26;20.10;54.10
33564;DHT22;19894;48.452;11.494;2022-10-31T00:44:51;20.10;54.00
33564;DHT22;19894;48.452;11.494;2022-10-31T00:47:17;20.10;54.40
33564;DHT22;19894;48.452;11.494;2022-10-31T00:49:43;20.10;54.00
33564;DHT22;19894;48.452;11.494;2022-10-31T00:52:08;20.10;53.90
33564;DHT22;19894;48.452;11.494;2022-10-31T00:54:34;20.10;53.90
33564;DHT22;19894;48.452;11.494;2022-10-31T00:56:59;20.10;54.10
33564;DHT22;19894;48.452;11.494;2022-10-31T00:59:25;20.10;54.30
33564;DHT22;19894;48.452;11.494;2022-10-31T01:01:50;20.10;54.30
33564;DHT22;19894;48.452;11.494;2022-10-31T01:04:16;20.10;54.60
33564;DHT22;19894;48.452;11.494;2022-10-31T01:06:41;20.10;54.70
33564;DHT22;19894;48.452;11.494;2022-10-31T01:09:07;20.10;54.60
33564;DHT22;19894;48.452;11.494;2022-10-31T01:11:33;20.10;54.80
33564;DHT22;19894;48.452;11.494;2022-10-31T01:13:58;20.10;54.90
33564;DHT22;19894;48.452;11.494;2022-10-31T01:16:26;20.10;54.80
33564;DHT22;19894;48.452;11.494;2022-10-31T01:18:52;20.10;55.00
33564;DHT22;19894;48.452;11.494;2022-10-31T01:21:24;20.10;55.00
33564;DHT22;19894;48.452;11.494;2022-10-31T01:23:50;20.10;55.20
33564;DHT22;19894;48.452;11.494;2022-10-31T01:26:23;20.10;55.20
33564;DHT22;19894;48.452;11.494;2022-10-31T01:28:59;20.10;55.20
33564;DHT22;19894;48.452;11.494;2022-10-31T01:31:31;20.10;55.20
33564;DHT22;19894;48.452;11.494;2022-10-31T01:33:57;20.10;55.10
33564;DHT22;19894;48.452;11.494;2022-10-31T01:38:52;20.10;54.50
33564;DHT22;19894;48.452;11.494;2022-10-31T01:41:21;20.10;54.30
33564;DHT22;19894;48.452;11.494;2022-10-31T01:46:40;20.10;53.90
33564;DHT22;19894;48.452;11.494;2022-10-31T01:49:05;20.10;53.80
33564;DHT22;19894;48.452;11.494;2022-10-31T01:51:36;20.10;53.80
33564;DHT22;19894;48.452;11.494;2022-10-31T01:54:08;20.10;53.70
33564;DHT22;19894;48.452;11.494;2022-10-31T01:56:39;20.10;53.70
33564;DHT22;19894;48.452;11.494;2022-10-31T01:59:08;20.10;53.60
33564;DHT22;19894;48.452;11.494;2022-10-31T02:01:37;20.10;53.60
33564;DHT22;19894;48.452;11.494;2022-10-31T02:04:02;20.10;53.50
33564;DHT22;19894;48.452;11.494;2022-10-31T02:06:36;20.10;53.70
33564;DHT22;19894;48.452;11.494;2022-10-31T02:09:04;20.10;53.80
33564;DHT22;19894;48.452;11.494;2022-10-31T02:11:31;20.10;54.20
33564;DHT22;19894;48.452;11.494;2022-10-31T02:13:59;20.10;54.20
33564;DHT22;19894;48.452;11.494;2022-10-31T02:16:25;20.10;54.20
33564;DHT22;19894;48.452;11.494;2022-10-31T02:18:51;20.10;54.20
33564;DHT22;19894;48.452;11.494;2022-10-31T02:21:35;20.10;54.00
33564;DHT22;19894;48.452;11.494;2022-10-31T02:24:46;20.10;54.20
33564;DHT22;19894;48.452;11.494;2022-10-31T02:27:16;20.10;54.40
33564;DHT22;19894;48.452;11.494;2022-10-31T02:48:25;20.10;54.00
33564;DHT22;19894;48.452;11.494;2022-10-31T02:50:58;20.10;53.20
33564;DHT22;19894;48.452;11.494;2022-10-31T02:53:24;20.00;53.10
33564;DHT22;19894;48.452;11.494;2022-10-31T02:56:04;20.10;52.80
33564;DHT22;19894;48.452;11.494;2022-10-31T02:58:35;20.10;53.10
33564;DHT22;19894;48.452;11.494;2022-10-31T03:01:39;20.10;52.90
33564;DHT22;19894;48.452;11.494;2022-10-31T03:11:53;20.10;53.10
33564;DHT22;19894;48.452;11.494;2022-10-31T03:14:35;20.10;53.30
33564;DHT22;19894;48.452;11.494;2022-10-31T03:17:06;20.10;53.60
33564;DHT22;19894;48.452;11.494;2022-10-31T03:19:41;20.10;53.50
33564;DHT22;19894;48.452;11.494;2022-10-31T03:22:21;20.00;53.40
33564;DHT22;19894;48.452;11.494;2022-10-31T03:24:48;20.10;53.70
33564;DHT22;19894;48.452;11.494;2022-10-31T03:27:21;20.00;53.70
33564;DHT22;19894;48.452;11.494;2022-10-31T03:29:50;20.00;53.70
33564;DHT22;19894;48.452;11.494;2022-10-31T03:32:34;20.00;53.70
33564;DHT22;19894;48.452;11.494;2022-10-31T03:35:02;20.10;54.00
33564;DHT22;19894;48.452;11.494;2022-10-31T03:37:30;20.00;53.90
33564;DHT22;19894;48.452;11.494;2022-10-31T03:39:59;20.10;54.00
33564;DHT22;19894;48.452;11.494;2022-10-31T03:42:27;20.00;53.90
33564;DHT22;19894;48.452;11.494;2022-10-31T03:45:08;20.00;54.00
33564;DHT22;19894;48.452;11.494;2022-10-31T03:47:36;20.00;53.50
33564;DHT22;19894;48.452;11.494;2022-10-31T03:50:04;20.00;53.30
33564;DHT22;19894;48.452;11.494;2022-10-31T03:52:49;20.00;53.40
33564;DHT22;19894;48.452;11.494;2022-10-31T03:55:20;20.00;53.00
33564;DHT22;19894;48.452;11.494;2022-10-31T03:58:03;20.00;52.60
33564;DHT22;19894;48.452;11.494;2022-10-31T04:00:31;20.10;52.20
33564;DHT22;19894;48.452;11.494;2022-10-31T04:03:07;20.10;52.30
33564;DHT22;19894;48.452;11.494;2022-10-31T04:05:35;20.10;52.20
33564;DHT22;19894;48.452;11.494;2022-10-31T04:08:04;20.10;52.10
33564;DHT22;19894;48.452;11.494;2022-10-31T04:10:32;20.10;52.00
33564;DHT22;19894;48.452;11.494;2022-10-31T04:13:06;20.10;52.00
33564;DHT22;19894;48.452;11.494;2022-10-31T04:15:33;20.10;52.60
33564;DHT22;19894;48.452;11.494;2022-10-31T04:18:01;20.10;52.00
33564;DHT22;19894;48.452;11.494;2022-10-31T04:20:34;20.10;51.90
33564;DHT22;19894;48.452;11.494;2022-10-31T04:23:00;20.10;52.20
33564;DHT22;19894;48.452;11.494;2022-10-31T04:25:27;20.10;52.70
33564;DHT22;19894;48.452;11.494;2022-10-31T04:27:52;20.10;52.80
33564;DHT22;19894;48.452;11.494;2022-10-31T04:30:18;20.10;52.70
33564;DHT22;19894;48.452;11.494;2022-10-31T04:32:43;20.10;52.80
33564;DHT22;19894;48.452;11.494;2022-10-31T04:35:09;20.10;52.90
33564;DHT22;19894;48.452;11.494;2022-10-31T04:37:34;20.10;52.90
33564;DHT22;19894;48.452;11.494;2022-10-31T04:40:00;20.00;53.10
33564;DHT22;19894;48.452;11.494;2022-10-31T04:42:29;20.00;53.10
33564;DHT22;19894;48.452;11.494;2022-10-31T04:44:55;20.00;53.30
33564;DHT22;19894;48.452;11.494;2022-10-31T04:47:20;20.00;53.20
33564;DHT22;19894;48.452;11.494;2022-10-31T04:49:46;20.00;53.30
33564;DHT22;19894;48.452;11.494;2022-10-31T04:52:11;20.10;53.40
33564;DHT22;19894;48.452;11.494;2022-10-31T04:54:37;20.00;53.40
33564;DHT22;19894;48.452;11.494;2022-10-31T04:57:02;20.00;53.30
33564;DHT22;19894;48.452;11.494;2022-10-31T04:59:28;20.00;53.20
33564;DHT22;19894;48.452;11.494;2022-10-31T05:01:54;20.00;52.80
33564;DHT22;19894;48.452;11.494;2022-10-31T05:04:19;20.00;52.70
33564;DHT22;19894;48.452;11.494;2022-10-31T05:06:45;20.10;52.90
33564;DHT22;19894;48.452;11.494;2022-10-31T05:09:10;20.10;52.50
33564;DHT22;19894;48.452;11.494;2022-10-31T05:11:36;20.00;52.00
33564;DHT22;19894;48.452;11.494;2022-10-31T05:14:01;20.00;52.20
33564;DHT22;19894;48.452;11.494;2022-10-31T05:16:28;20.00;51.60
33564;DHT22;19894;48.452;11.494;2022-10-31T05:18:53;20.10;51.60
33564;DHT22;19894;48.452;11.494;2022-10-31T05:21:19;20.10;51.50
33564;DHT22;19894;48.452;11.494;2022-10-31T05:23:45;20.00;51.40
33564;DHT22;19894;48.452;11.494;2022-10-31T05:26:10;20.00;51.20
33564;DHT22;19894;48.452;11.494;2022-10-31T05:28:36;20.10;51.40
33564;DHT22;19894;48.452;11.494;2022-10-31T05:31:01;20.10;51.70
33564;DHT22;19894;48.452;11.494;2022-10-31T05:33:27;20.10;52.00
33564;DHT22;19894;48.452;11.494;2022-10-31T05:35:53;20.10;52.20
33564;DHT22;19894;48.452;11.494;2022-10-31T05:38:18;20.00;52.20
33564;DHT22;19894;48.452;11.494;2022-10-31T05:40:44;20.10;52.40
33564;DHT22;19894;48.452;11.494;2022-10-31T05:43:09;20.10;52.70
33564;DHT22;19894;48.452;11.494;2022-10-31T05:45:35;20.00;52.50
33564;DHT22;19894;48.452;11.494;2022-10-31T05:48:01;20.00;52.70
33564;DHT22;19894;48.452;11.494;2022-10-31T05:50:29;20.00;52.70
33564;DHT22;19894;48.452;11.494;2022-10-31T05:53:00;20.00;52.80
33564;DHT22;19894;48.452;11.494;2022-10-31T05:55:26;20.00;52.80
33564;DHT22;19894;48.452;11.494;2022-10-31T05:57:53;20.00;52.80
33564;DHT22;19894;48.452;11.494;2022-10-31T06:00:19;20.00;52.80
33564;DHT22;19894;48.452;11.494;2022-10-31T06:02:44;20.00;52.90
33564;DHT22;19894;48.452;11.494;2022-10-31T06:05:10;20.00;52.80
33564;DHT22;19894;48.452;11.494;2022-10-31T06:07:36;20.00;52.30
33564;DHT22;19894;48.452;11.494;2022-10-31T06:10:04;20.10;52.00
33564;DHT22;19894;48.452;11.494;2022-10-31T06:12:30;20.00;52.20
33564;DHT22;19894;48.452;11.494;2022-10-31T06:14:56;20.00;52.00
33564;DHT22;19894;48.452;11.494;2022-10-31T06:17:22;20.00;51.80
33564;DHT22;19894;48.452;11.494;2022-10-31T06:19:47;20.10;51.60
33564;DHT22;19894;48.452;11.494;2022-10-31T06:22:13;20.00;51.50
33564;DHT22;19894;48.452;11.494;2022-10-31T06:24:39;20.00;51.40
33564;DHT22;19894;48.452;11.494;2022-10-31T06:27:05;20.10;51.40
33564;DHT22;19894;48.452;11.494;2022-10-31T06:29:30;20.10;51.40
33564;DHT22;19894;48.452;11.494;2022-10-31T06:31:56;20.10;51.40
33564;DHT22;19894;48.452;11.494;2022-10-31T06:34:22;20.10;51.40
33564;DHT22;19894;48.452;11.494;2022-10-31T06:36:47;20.10;51.50
33564;DHT22;19894;48.452;11.494;2022-10-31T06:39:13;20.10;51.90
33564;DHT22;19894;48.452;11.494;2022-10-31T06:41:39;20.10;52.00
33564;DHT22;19894;48.452;11.494;2022-10-31T06:44:06;20.10;52.20
33564;DHT22;19894;48.452;11.494;2022-10-31T06:46:31;20.10;52.20
33564;DHT22;19894;48.452;11.494;2022-10-31T06:48:57;20.10;52.70
33564;DHT22;19894;48.452;11.494;2022-10-31T06:51:22;20.00;52.40
33564;DHT22;19894;48.452;11.494;2022-10-31T06:53:48;20.00;52.50
33564;DHT22;19894;48.452;11.494;2022-10-31T06:56:14;20.00;52.20
33564;DHT22;19894;48.452;11.494;2022-10-31T06:58:39;20.00;52.50
33564;DHT22;19894;48.452;11.494;2022-10-31T07:01:05;20.00;52.20
33564;DHT22;19894;48.452;11.494;2022-10-31T07:03:30;20.00;52.50
33564;DHT22;19894;48.452;11.494;2022-10-31T07:05:56;20.00;52.60
33564;DHT22;19894;48.452;11.494;2022-10-31T07:08:22;20.00;52.60
33564;DHT22;19894;48.452;11.494;2022-10-31T07:10:56;20.00;52.70
33564;DHT22;19894;48.452;11.494;2022-10-31T07:13:23;20.00;52.60
33564;DHT22;19894;48.452;11.494;2022-10-31T07:16:00;20.00;52.20
33564;DHT22;19894;48.452;11.494;2022-10-31T07:18:26;20.00;51.80
33564;DHT22;19894;48.452;11.494;2022-10-31T07:20:52;20.00;51.80
33564;DHT22;19894;48.452;11.494;2022-10-31T07:23:17;20.00;51.80
33564;DHT22;19894;48.452;11.494;2022-10-31T07:25:43;20.00;51.70
33564;DHT22;19894;48.452;11.494;2022-10-31T07:28:09;20.00;51.70
33564;DHT22;19894;48.452;11.494;2022-10-31T07:30:35;20.10;51.80
33564;DHT22;19894;48.452;11.494;2022-10-31T07:33:00;20.10;51.80
33564;DHT22;19894;48.452;11.494;2022-10-31T07:35:28;20.10;51.90
33564;DHT22;19894;48.452;11.494;2022-10-31T07:37:54;20.10;51.80
33564;DHT22;19894;48.452;11.494;2022-10-31T07:40:20;20.10;51.80
33564;DHT22;19894;48.452;11.494;2022-10-31T07:42:48;20.10;52.00
33564;DHT22;19894;48.452;11.494;2022-10-31T07:45:16;20.10;52.00
33564;DHT22;19894;48.452;11.494;2022-10-31T07:47:44;20.10;52.20
33564;DHT22;19894;48.452;11.494;2022-10-31T07:50:12;20.10;52.30
33564;DHT22;19894;48.452;11.494;2022-10-31T07:52:38;20.10;52.30
33564;DHT22;19894;48.452;11.494;2022-10-31T07:55:05;20.10;52.50
33564;DHT22;19894;48.452;11.494;2022-10-31T07:57:30;20.00;52.50
33564;DHT22;19894;48.452;11.494;2022-10-31T07:59:56;20.00;52.60
33564;DHT22;19894;48.452;11.494;2022-10-31T08:02:23;20.10;52.70
33564;DHT22;19894;48.452;11.494;2022-10-31T08:04:49;20.00;52.60
33564;DHT22;19894;48.452;11.494;2022-10-31T08:07:15;20.00;52.60
33564;DHT22;19894;48.452;11.494;2022-10-31T08:09:40;20.00;52.70
33564;DHT22;19894;48.452;11.494;2022-10-31T08:12:06;20.00;52.70
33564;DHT22;19894;48.452;11.494;2022-10-31T08:14:32;20.00;53.30
33564;DHT22;19894;48.452;11.494;2022-10-31T08:16:57;20.00;52.90
33564;DHT22;19894;48.452;11.494;2022-10-31T08:19:24;20.00;52.80
33564;DHT22;19894;48.452;11.494;2022-10-31T08:21:53;20.00;52.70
33564;DHT22;19894;48.452;11.494;2022-10-31T08:24:20;20.00;52.60
33564;DHT22;19894;48.452;11.494;2022-10-31T08:26:46;20.00;52.70
33564;DHT22;19894;48.452;11.494;2022-10-31T08:29:12;20.10;52.70
33564;DHT22;19894;48.452;11.494;2022-10-31T08:31:38;20.10;52.70
33564;DHT22;19894;48.452;11.494;2022-10-31T08:34:04;20.10;52.80
33564;DHT22;19894;48.452;11.494;2022-10-31T08:36:29;20.10;52.80
33564;DHT22;19894;48.452;11.494;2022-10-31T08:38:55;20.10;52.90
33564;DHT22;19894;48.452;11.494;2022-10-31T08:41:21;20.10;53.00
33564;DHT22;19894;48.452;11.494;2022-10-31T08:43:47;20.10;53.10
33564;DHT22;19894;48.452;11.494;2022-10-31T08:46:13;20.10;53.10
33564;DHT22;19894;48.452;11.494;2022-10-31T08:48:38;20.10;53.10
33564;DHT22;19894;48.452;11.494;2022-10-31T08:51:04;20.10;53.20
33564;DHT22;19894;48.452;11.494;2022-10-31T08:53:30;20.10;53.30
33564;DHT22;19894;48.452;11.494;2022-10-31T08:55:56;20.10;53.30
33564;DHT22;19894;48.452;11.494;2022-10-31T08:58:22;20.10;53.40
33564;DHT22;19894;48.452;11.494;2022-10-31T09:00:51;20.10;53.40
33564;DHT22;19894;48.452;11.494;2022-10-31T09:03:22;20.10;53.40
33564;DHT22;19894;48.452;11.494;2022-10-31T09:05:48;20.10;53.60
33564;DHT22;19894;48.452;11.494;2022-10-31T09:08:15;20.10;53.60
33564;DHT22;19894;48.452;11.494;2022-10-31T09:10:41;20.10;53.70
33564;DHT22;19894;48.452;11.494;2022-10-31T09:13:15;20.10;53.70
33564;DHT22;19894;48.452;11.494;2022-10-31T09:15:43;20.10;53.80
33564;DHT22;19894;48.452;11.494;2022-10-31T09:18:09;20.10;53.90
33564;DHT22;19894;48.452;11.494;2022-10-31T09:20:36;20.10;53.90
33564;DHT22;19894;48.452;11.494;2022-10-31T09:23:10;20.00;53.90
33564;DHT22;19894;48.452;11.494;2022-10-31T09:25:36;20.00;54.00
33564;DHT22;19894;48.452;11.494;2022-10-31T09:28:04;20.00;54.20
33564;DHT22;19894;48.452;11.494;2022-10-31T09:30:32;20.10;54.40
33564;DHT22;19894;48.452;11.494;2022-10-31T09:32:59;20.10;54.40
33564;DHT22;19894;48.452;11.494;2022-10-31T09:35:26;20.10;54.40
33564;DHT22;19894;48.452;11.494;2022-10-31T09:38:02;20.10;54.50
33564;DHT22;19894;48.452;11.494;2022-10-31T09:40:39;20.10;54.50
33564;DHT22;19894;48.452;11.494;2022-10-31T09:56:17;20.10;55.30
33564;DHT22;19894;48.452;11.494;2022-10-31T09:58:46;20.10;55.30
33564;DHT22;19894;48.452;11.494;2022-10-31T10:04:29;20.10;55.30
33564;DHT22;19894;48.452;11.494;2022-10-31T10:06:56;20.10;55.50
33564;DHT22;19894;48.452;11.494;2022-10-31T10:09:25;20.10;55.50
33564;DHT22;19894;48.452;11.494;2022-10-31T10:17:16;20.10;55.90
33564;DHT22;19894;48.452;11.494;2022-10-31T10:20:27;20.10;56.10
33564;DHT22;19894;48.452;11.494;2022-10-31T10:28:40;20.10;56.30
33564;DHT22;19894;48.452;11.494;2022-10-31T10:31:10;20.10;57.00
33564;DHT22;19894;48.452;11.494;2022-10-31T10:36:32;20.10;56.90
33564;DHT22;19894;48.452;11.494;2022-10-31T10:39:50;20.10;56.90
33564;DHT22;19894;48.452;11.494;2022-10-31T10:41:50;20.10;57.10
33564;DHT22;19894;48.452;11.494;2022-10-31T10:44:40;20.10;56.90
33564;DHT22;19894;48.452;11.494;2022-10-31T10:47:37;20.10;57.20
33564;DHT22;19894;48.452;11.494;2022-10-31T10:50:34;20.10;57.30
33564;DHT22;19894;48.452;11.494;2022-10-31T10:58:20;20.10;57.50
33564;DHT22;19894;48.452;11.494;2022-10-31T11:00:46;20.20;57.60
33564;DHT22;19894;48.452;11.494;2022-10-31T11:03:17;20.20;57.60
33564;DHT22;19894;48.452;11.494;2022-10-31T11:05:55;20.20;57.60
33564;DHT22;19894;48.452;11.494;2022-10-31T11:08:27;20.20;57.60
33564;DHT22;19894;48.452;11.494;2022-10-31T11:11:35;20.20;57.70
33564;DHT22;19894;48.452;11.494;2022-10-31T11:13:44;20.20;57.70
33564;DHT22;19894;48.452;11.494;2022-10-31T11:16:49;20.10;57.70
33564;DHT22;19894;48.452;11.494;2022-10-31T11:19:13;20.20;57.70
33564;DHT22;19894;48.452;11.494;2022-10-31T11:21:41;20.10;57.70
33564;DHT22;19894;48.452;11.494;2022-10-31T11:26:40;20.10;57.90
33564;DHT22;19894;48.452;11.494;2022-10-31T11:29:23;20.10;57.80
33564;DHT22;19894;48.452;11.494;2022-10-31T11:31:54;20.10;57.80
33564;DHT22;19894;48.452;11.494;2022-10-31T11:34:30;20.10;57.80
33564;DHT22;19894;48.452;11.494;2022-10-31T11:37:15;20.10;57.90
33564;DHT22;19894;48.452;11.494;2022-10-31T11:39:44;20.10;57.90
33564;DHT22;19894;48.452;11.494;2022-10-31T11:42:12;20.10;58.30
33564;DHT22;19894;48.452;11.494;2022-10-31T11:44:42;20.10;58.30
33564;DHT22;19894;48.452;11.494;2022-10-31T11:47:17;20.10;58.80
33564;DHT22;19894;48.452;11.494;2022-10-31T11:49:45;20.10;58.40
33564;DHT22;19894;48.452;11.494;2022-10-31T11:52:17;20.10;58.50
33564;DHT22;19894;48.452;11.494;2022-10-31T11:57:32;20.20;58.70
33564;DHT22;19894;48.452;11.494;2022-10-31T12:00:00;20.20;58.70
33564;DHT22;19894;48.452;11.494;2022-10-31T12:02:26;20.20;58.80
33564;DHT22;19894;48.452;11.494;2022-10-31T12:05:08;20.20;58.80
33564;DHT22;19894;48.452;11.494;2022-10-31T12:07:36;20.20;58.80
33564;DHT22;19894;48.452;11.494;2022-10-31T12:10:10;20.20;58.80
33564;DHT22;19894;48.452;11.494;2022-10-31T12:15:33;20.20;58.90
33564;DHT22;19894;48.452;11.494;2022-10-31T12:23:52;20.20;58.80
33564;DHT22;19894;48.452;11.494;2022-10-31T12:29:19;20.20;58.90
33564;DHT22;19894;48.452;11.494;2022-10-31T12:34:48;20.20;59.00
33564;DHT22;19894;48.452;11.494;2022-10-31T12:40:32;20.20;59.20
33564;DHT22;19894;48.452;11.494;2022-10-31T12:45:57;20.10;59.20
33564;DHT22;19894;48.452;11.494;2022-10-31T12:56:13;20.20;59.60
33564;DHT22;19894;48.452;11.494;2022-10-31T13:01:15;20.20;59.70
33564;DHT22;19894;48.452;11.494;2022-10-31T13:03:58;20.20;59.70
33564;DHT22;19894;48.452;11.494;2022-10-31T13:06:36;20.20;59.80
33564;DHT22;19894;48.452;11.494;2022-10-31T13:09:07;20.20;60.00
33564;DHT22;19894;48.452;11.494;2022-10-31T13:11:40;20.20;60.00
33564;DHT22;19894;48.452;11.494;2022-10-31T13:14:07;20.20;60.00
33564;DHT22;19894;48.452;11.494;2022-10-31T13:16:38;20.20;60.00
33564;DHT22;19894;48.452;11.494;2022-10-31T13:22:09;20.20;60.00
33564;DHT22;19894;48.452;11.494;2022-10-31T13:24:52;20.20;59.90
33564;DHT22;19894;48.452;11.494;2022-10-31T13:27:26;20.20;59.80
33564;DHT22;19894;48.452;11.494;2022-10-31T13:33:21;20.20;59.80
33564;DHT22;19894;48.452;11.494;2022-10-31T13:36:06;20.20;59.80
33564;DHT22;19894;48.452;11.494;2022-10-31T13:38:46;20.20;59.80
33564;DHT22;19894;48.452;11.494;2022-10-31T13:48:59;20.20;60.20
33564;DHT22;19894;48.452;11.494;2022-10-31T13:51:32;20.20;60.20
33564;DHT22;19894;48.452;11.494;2022-10-31T13:54:06;20.20;60.10
33564;DHT22;19894;48.452;11.494;2022-10-31T13:56:34;20.10;60.30
33564;DHT22;19894;48.452;11.494;2022-10-31T14:01:51;20.20;60.40
33564;DHT22;19894;48.452;11.494;2022-10-31T14:04:22;20.20;61.00
33564;DHT22;19894;48.452;11.494;2022-10-31T14:09:32;20.20;60.40
33564;DHT22;19894;48.452;11.494;2022-10-31T14:12:21;20.20;60.50
33564;DHT22;19894;48.452;11.494;2022-10-31T14:14:52;20.20;60.50
33564;DHT22;19894;48.452;11.494;2022-10-31T14:17:25;20.20;60.50
33564;DHT22;19894;48.452;11.494;2022-10-31T14:22:31;20.20;60.50
33564;DHT22;19894;48.452;11.494;2022-10-31T14:24:57;20.20;60.50
33564;DHT22;19894;48.452;11.494;2022-10-31T14:29:52;20.20;60.40
33564;DHT22;19894;48.452;11.494;2022-10-31T14:32:25;20.20;60.50
33564;DHT22;19894;48.452;11.494;2022-10-31T14:34:58;20.20;60.40
33564;DHT22;19894;48.452;11.494;2022-10-31T14:40:41;20.20;60.40
33564;DHT22;19894;48.452;11.494;2022-10-31T14:51:35;20.20;60.50
33564;DHT22;19894;48.452;11.494;2022-10-31T14:54:02;20.20;60.50
33564;DHT22;19894;48.452;11.494;2022-10-31T14:56:30;20.20;60.60
33564;DHT22;19894;48.452;11.494;2022-10-31T14:59:03;20.20;60.60
33564;DHT22;19894;48.452;11.494;2022-10-31T15:01:32;20.20;60.80
33564;DHT22;19894;48.452;11.494;2022-10-31T15:04:07;20.20;60.80
33564;DHT22;19894;48.452;11.494;2022-10-31T15:06:44;20.20;60.70
33564;DHT22;19894;48.452;11.494;2022-10-31T15:09:28;20.20;60.60
33564;DHT22;19894;48.452;11.494;2022-10-31T15:11:54;20.20;60.50
33564;DHT22;19894;48.452;11.494;2022-10-31T15:14:27;20.20;60.60
33564;DHT22;19894;48.452;11.494;2022-10-31T15:16:53;20.20;60.50
33564;DHT22;19894;48.452;11.494;2022-10-31T15:19:24;20.20;60.50
33564;DHT22;19894;48.452;11.494;2022-10-31T15:21:52;20.20;59.90
33564;DHT22;19894;48.452;11.494;2022-10-31T15:24:18;20.20;60.00
33564;DHT22;19894;48.452;11.494;2022-10-31T15:26:46;20.20;60.00
33564;DHT22;19894;48.452;11.494;2022-10-31T15:29:15;20.20;60.10
33564;DHT22;19894;48.452;11.494;2022-10-31T15:31:56;20.20;60.10
33564;DHT22;19894;48.452;11.494;2022-10-31T15:34:26;20.20;60.10
33564;DHT22;19894;48.452;11.494;2022-10-31T15:36:53;20.20;60.10
33564;DHT22;19894;48.452;11.494;2022-10-31T15:39:19;20.20;60.20
33564;DHT22;19894;48.452;11.494;2022-10-31T15:41:53;20.20;60.20
33564;DHT22;19894;48.452;11.494;2022-10-31T15:47:22;20.20;60.10
33564;DHT22;19894;48.452;11.494;2022-10-31T15:49:54;20.20;60.20
33564;DHT22;19894;48.452;11.494;2022-10-31T15:52:42;20.20;60.20
33564;DHT22;19894;48.452;11.494;2022-10-31T15:55:19;20.20;60.20
33564;DHT22;19894;48.452;11.494;2022-10-31T15:57:55;20.20;60.20
33564;DHT22;19894;48.452;11.494;2022-10-31T16:00:29;20.20;60.30
33564;DHT22;19894;48.452;11.494;2022-10-31T16:05:51;20.20;60.50
33564;DHT22;19894;48.452;11.494;2022-10-31T16:13:29;20.20;60.50
33564;DHT22;19894;48.452;11.494;2022-10-31T16:16:01;20.20;60.50
33564;DHT22;19894;48.452;11.494;2022-10-31T16:18:30;20.20;60.40
33564;DHT22;19894;48.452;11.494;2022-10-31T16:21:00;20.20;60.40
33564;DHT22;19894;48.452;11.494;2022-10-31T16:23:26;20.20;60.30
33564;DHT22;19894;48.452;11.494;2022-10-31T16:25:52;20.20;60.30
33564;DHT22;19894;48.452;11.494;2022-10-31T16:28:24;20.20;60.30
33564;DHT22;19894;48.452;11.494;2022-10-31T16:30:55;20.20;60.30
33564;DHT22;19894;48.452;11.494;2022-10-31T16:33:26;20.20;60.20
33564;DHT22;19894;48.452;11.494;2022-10-31T16:35:52;20.20;60.10
33564;DHT22;19894;48.452;11.494;2022-10-31T16:38:18;20.20;60.00
33564;DHT22;19894;48.452;11.494;2022-10-31T16:40:44;20.20;60.00
33564;DHT22;19894;48.452;11.494;2022-10-31T16:43:15;20.20;60.00
33564;DHT22;19894;48.452;11.494;2022-10-31T16:45:46;20.20;60.00
33564;DHT22;19894;48.452;11.494;2022-10-31T16:48:17;20.20;59.90
33564;DHT22;19894;48.452;11.494;2022-10-31T16:50:44;20.20;59.90
33564;DHT22;19894;48.452;11.494;2022-10-31T16:53:11;20.20;59.90
33564;DHT22;19894;48.452;11.494;2022-10-31T16:55:51;20.20;59.80
33564;DHT22;19894;48.452;11.494;2022-10-31T16:58:23;20.20;59.80
33564;DHT22;19894;48.452;11.494;2022-10-31T17:00:49;20.20;59.80
33564;DHT22;19894;48.452;11.494;2022-10-31T17:03:15;20.20;59.80
33564;DHT22;19894;48.452;11.494;2022-10-31T17:05:40;20.20;59.80
33564;DHT22;19894;48.452;11.494;2022-10-31T17:08:06;20.20;59.80
33564;DHT22;19894;48.452;11.494;2022-10-31T17:10:32;20.20;59.80
33564;DHT22;19894;48.452;11.494;2022-10-31T17:12:58;20.20;59.70
33564;DHT22;19894;48.452;11.494;2022-10-31T17:15:27;20.20;59.80
33564;DHT22;19894;48.452;11.494;2022-10-31T17:17:53;20.20;59.70
33564;DHT22;19894;48.452;11.494;2022-10-31T17:20:25;20.20;59.60
33564;DHT22;19894;48.452;11.494;2022-10-31T17:22:51;20.20;59.60
33564;DHT22;19894;48.452;11.494;2022-10-31T17:25:21;20.20;59.60
33564;DHT22;19894;48.452;11.494;2022-10-31T17:27:47;20.20;59.50
33564;DHT22;19894;48.452;11.494;2022-10-31T17:30:14;20.10;59.50
33564;DHT22;19894;48.452;11.494;2022-10-31T17:32:40;20.20;59.40
33564;DHT22;19894;48.452;11.494;2022-10-31T17:35:08;20.20;59.40
33564;DHT22;19894;48.452;11.494;2022-10-31T17:37:34;20.20;59.30
33564;DHT22;19894;48.452;11.494;2022-10-31T17:40:00;20.20;59.30
33564;DHT22;19894;48.452;11.494;2022-10-31T17:42:25;20.20;59.20
33564;DHT22;19894;48.452;11.494;2022-10-31T17:44:51;20.20;59.20
33564;DHT22;19894;48.452;11.494;2022-10-31T17:47:17;20.20;59.20
33564;DHT22;19894;48.452;11.494;2022-10-31T17:49:42;20.20;59.10
33564;DHT22;19894;48.452;11.494;2022-10-31T17:52:08;20.20;59.10
33564;DHT22;19894;48.452;11.494;2022-10-31T17:54:34;20.20;59.10
33564;DHT22;19894;48.452;11.494;2022-10-31T17:56:59;20.20;59.00
33564;DHT22;19894;48.452;11.494;2022-10-31T17:59:25;20.20;59.00